Time;durP1;ratioP1;P1;durP2;ratioP2;P2;SDS_P1;SDS_P2;PMS_P1;PMS_P2;Temp;Humidity;BMP_temperature;BMP_pressure;BME280_temperature;BME280_humidity;BME280_pressure;Samples;Min_cycle;Max_cycle;Signal;HPM_P1;HPM_P2
2022/04/27 00:02:19;;;;;;;11.50;6.97;;;;;;;5.35;74.44;100928.75;1722641;82;21067;-75
2022/04/27 00:04:46;;;;;;;9.17;6.17;;;;;;;5.30;74.45;100931.81;1730215;82;21017;-74
2022/04/27 00:07:14;;;;;;;8.70;5.87;;;;;;;5.28;74.58;100937.00;1722771;82;21659;-74
2022/04/27 00:09:41;;;;;;;8.47;5.70;;;;;;;5.28;74.90;100934.41;1733308;82;21016;-76
2022/04/27 00:12:09;;;;;;;9.27;5.90;;;;;;;5.30;74.96;100936.56;1728922;82;21114;-74
2022/04/27 00:14:36;;;;;;;11.07;5.70;;;;;;;5.29;75.04;100934.84;1718499;82;20992;-75
2022/04/27 00:17:04;;;;;;;9.37;5.97;;;;;;;5.28;75.13;100938.74;1727194;82;21177;-74
2022/04/27 00:19:31;;;;;;;9.60;6.27;;;;;;;5.26;75.25;100940.48;1731186;82;20961;-76
2022/04/27 00:21:58;;;;;;;8.30;5.93;;;;;;;5.28;75.47;100934.84;1723406;82;21011;-74
2022/04/27 00:24:25;;;;;;;8.87;5.83;;;;;;;5.30;75.65;100931.81;1726236;82;21212;-74
2022/04/27 00:26:52;;;;;;;9.57;5.23;;;;;;;5.32;75.74;100930.92;1733272;82;21029;-74
2022/04/27 00:29:19;;;;;;;7.10;5.40;;;;;;;5.34;75.84;100934.35;1724396;82;21114;-74
2022/04/27 00:31:46;;;;;;;8.00;5.60;;;;;;;5.37;76.00;100933.03;1730563;82;21012;-75
2022/04/27 00:34:13;;;;;;;7.03;5.47;;;;;;;5.39;76.14;100934.33;1726363;82;21050;-74
2022/04/27 00:36:40;;;;;;;8.37;5.50;;;;;;;5.43;76.31;100929.96;1720625;82;21089;-74
2022/04/27 00:39:08;;;;;;;9.70;6.67;;;;;;;5.45;76.42;100939.48;1732061;82;21360;-74
2022/04/27 00:41:35;;;;;;;10.23;6.73;;;;;;;5.49;76.59;100933.84;1729239;82;21482;-74
2022/04/27 00:44:02;;;;;;;8.83;6.37;;;;;;;5.52;76.54;100939.02;1727161;82;21487;-74
2022/04/27 00:46:29;;;;;;;10.30;5.93;;;;;;;5.51;76.52;100936.83;1723914;82;21048;-74
2022/04/27 00:48:56;;;;;;;10.13;6.20;;;;;;;5.53;76.56;100937.69;1729923;82;21129;-75
2022/04/27 00:51:26;;;;;;;9.87;6.07;;;;;;;5.55;76.63;100941.14;1730294;82;20984;-74
2022/04/27 00:53:53;;;;;;;7.10;4.95;;;;;;;5.53;76.66;100941.59;1730023;82;27592;-74
2022/04/27 00:56:21;;;;;;;7.47;5.27;;;;;;;5.56;76.76;100948.50;1729577;82;21482;-74
2022/04/27 00:58:49;;;;;;;7.43;5.60;;;;;;;5.57;76.75;100945.02;1724621;82;21075;-75
2022/04/27 01:01:16;;;;;;;11.37;7.10;;;;;;;5.55;76.82;100939.84;1728072;82;22144;-75
2022/04/27 01:03:44;;;;;;;10.70;7.87;;;;;;;5.57;76.89;100945.02;1724316;82;20993;-74
2022/04/27 01:06:11;;;;;;;11.17;6.93;;;;;;;5.58;76.98;100952.82;1724405;82;21053;-75
2022/04/27 01:08:39;;;;;;;11.63;6.93;;;;;;;5.59;77.03;100950.63;1724284;82;21004;-75
2022/04/27 01:11:07;;;;;;;11.50;6.90;;;;;;;5.59;76.98;100955.84;1715916;82;21028;-75
2022/04/27 01:13:38;;;;;;;10.37;6.90;;;;;;;5.59;77.00;100954.98;1729200;82;21136;-75
2022/04/27 01:16:06;;;;;;;9.80;6.57;;;;;;;5.59;77.13;100955.84;1732458;82;21004;-75
2022/04/27 01:18:34;;;;;;;10.90;7.40;;;;;;;5.59;77.12;100956.28;1731024;82;21024;-75
2022/04/27 01:21:03;;;;;;;10.80;7.43;;;;;;;5.58;77.16;100958.02;1728952;82;20975;-76
2022/04/27 01:23:32;;;;;;;10.40;6.93;;;;;;;5.57;77.17;100952.41;1732027;82;21514;-75
2022/04/27 01:26:05;;;;;;;9.10;6.53;;;;;;;5.57;77.22;100957.61;1727208;82;21918;-75
2022/04/27 01:28:30;;;;;;;11.63;7.10;;;;;;;5.58;77.30;100957.16;1723408;82;21146;-75
2022/04/27 01:31:03;;;;;;;10.93;7.30;;;;;;;5.60;77.45;100959.33;1730519;82;21506;-75
2022/04/27 01:33:31;;;;;;;11.67;6.97;;;;;;;5.63;77.63;100963.64;1730362;82;20976;-75
2022/04/27 01:35:58;;;;;;;11.57;7.43;;;;;;;5.65;77.69;100960.57;1731923;82;21546;-75
2022/04/27 01:38:26;;;;;;;11.03;7.43;;;;;;;5.63;77.62;100960.59;1722248;82;21076;-75
2022/04/27 01:40:56;;;;;;;12.37;8.00;;;;;;;5.63;77.75;100963.20;1726106;82;21048;-75
2022/04/27 01:43:29;;;;;;;11.53;8.18;;;;;;;5.63;77.78;100967.10;1723408;82;21095;-75
2022/04/27 01:45:53;;;;;;;13.17;8.87;;;;;;;5.65;77.88;100967.06;1728421;82;21019;-75
2022/04/27 01:48:23;;;;;;;11.47;8.33;;;;;;;5.65;77.90;100969.23;1722165;82;21058;-75
2022/04/27 01:50:50;;;;;;;11.37;7.93;;;;;;;5.70;78.02;100975.70;1731055;82;21488;-75
2022/04/27 01:56:04;;;;;;;13.07;9.37;;;;;;;5.72;77.83;100971.36;1728749;82;22239;-76
2022/04/27 01:58:33;;;;;;;11.22;7.50;;;;;;;5.72;77.87;100972.66;1726291;82;21048;-74
2022/04/27 02:01:00;;;;;;;11.40;7.80;;;;;;;5.72;77.96;100972.66;1699018;82;21094;-75
2022/04/27 02:03:29;;;;;;;8.77;6.93;;;;;;;5.72;77.95;100971.36;1727628;82;21193;-75
2022/04/27 02:05:57;;;;;;;13.67;8.23;;;;;;;5.69;77.93;100969.64;1735618;82;20910;-75
2022/04/27 02:08:25;;;;;;;11.67;8.57;;;;;;;5.72;78.12;100971.36;1729444;82;21001;-75
2022/04/27 02:10:52;;;;;;;12.50;8.43;;;;;;;5.75;78.12;100973.94;1726891;82;21029;-75
2022/04/27 02:13:19;;;;;;;12.57;8.77;;;;;;;5.73;78.03;100976.98;1729213;82;21062;-75
2022/04/27 02:15:47;;;;;;;9.87;7.33;;;;;;;5.70;77.96;100972.66;1728449;82;21102;-75
2022/04/27 02:18:19;;;;;;;11.23;7.97;;;;;;;5.69;77.99;100979.19;1726744;82;21601;-75
2022/04/27 02:20:44;;;;;;;11.23;7.67;;;;;;;5.67;78.02;100980.94;1728300;82;21007;-75
2022/04/27 02:23:11;;;;;;;15.63;9.23;;;;;;;5.65;78.08;100982.23;1732130;82;20982;-75
2022/04/27 02:25:39;;;;;;;16.07;8.63;;;;;;;5.65;78.12;100982.67;1727762;82;21013;-75
2022/04/27 02:28:06;;;;;;;11.37;7.67;;;;;;;5.64;78.24;100980.52;1727033;82;21881;-76
2022/04/27 02:30:33;;;;;;;13.27;8.27;;;;;;;5.65;78.24;100977.03;1732908;82;20944;-75
2022/04/27 02:33:00;;;;;;;16.07;10.17;;;;;;;5.65;78.34;100975.73;1724126;82;21087;-76
2022/04/27 02:35:28;;;;;;;11.83;8.70;;;;;;;5.64;78.38;100976.61;1723762;82;21018;-76
2022/04/27 02:37:56;;;;;;;13.53;8.03;;;;;;;5.64;78.46;100979.22;1720382;82;21078;-76
2022/04/27 02:40:24;;;;;;;12.43;8.53;;;;;;;5.64;78.50;100980.96;1730421;82;21344;-75
2022/04/27 02:42:55;;;;;;;11.33;7.97;;;;;;;5.62;78.46;100982.70;1708134;82;21103;-75
2022/04/27 02:45:22;;;;;;;12.18;8.38;;;;;;;5.58;78.41;100984.47;1728947;82;21032;-75
2022/04/27 02:47:49;;;;;;;15.50;9.47;;;;;;;5.56;78.61;100984.47;1724777;82;21048;-75
2022/04/27 02:53:02;;;;;;;18.30;11.33;;;;;;;5.55;78.71;100986.66;1728761;82;21122;-77
2022/04/27 02:55:30;;;;;;;18.40;10.87;;;;;;;5.53;78.70;100987.09;1727526;82;21001;-76
2022/04/27 02:57:58;;;;;;;18.00;10.30;;;;;;;5.52;78.71;100989.72;1728637;82;21021;-77
2022/04/27 03:00:25;;;;;;;14.43;9.17;;;;;;;5.49;78.81;100988.45;1723596;82;21091;-76
2022/04/27 03:02:53;;;;;;;12.47;8.77;;;;;;;5.47;78.68;100991.48;1719542;82;21122;-76
2022/04/27 03:05:22;;;;;;;12.87;8.53;;;;;;;5.42;78.55;100991.50;1721692;82;21154;-76
2022/04/27 03:07:49;;;;;;;13.63;8.57;;;;;;;5.37;78.54;100994.56;1723565;82;21485;-75
2022/04/27 03:10:16;;;;;;;12.77;8.27;;;;;;;5.34;78.57;100995.88;1730496;82;21012;-77
2022/04/27 03:12:43;;;;;;;11.50;8.00;;;;;;;5.32;78.53;100993.72;1728810;82;20992;-77
2022/04/27 03:15:10;;;;;;;10.53;7.90;;;;;;;5.26;78.54;100992.02;1726532;82;21669;-76
2022/04/27 03:17:37;;;;;;;11.67;7.83;;;;;;;5.23;78.42;100997.23;1731289;82;21037;-76
2022/04/27 03:20:07;;;;;;;12.80;7.70;;;;;;;5.19;78.36;100997.28;1726101;82;21021;-77
2022/04/27 03:22:34;;;;;;;10.73;7.73;;;;;;;5.12;78.23;101003.79;1727520;82;20940;-76
2022/04/27 03:25:03;;;;;;;16.57;8.70;;;;;;;5.07;78.23;101011.18;1732173;82;21053;-76
2022/04/27 03:27:30;;;;;;;17.93;11.03;;;;;;;5.00;78.21;101012.09;1728553;82;20996;-76
2022/04/27 03:29:57;;;;;;;18.70;11.07;;;;;;;4.95;78.22;101019.90;1726737;82;21596;-77
2022/04/27 03:32:24;;;;;;;23.70;12.70;;;;;;;4.90;78.22;101012.14;1709561;82;21051;-76
2022/04/27 03:34:53;;;;;;;27.27;13.50;;;;;;;4.86;78.31;101019.95;1730586;82;22047;-76
2022/04/27 03:37:21;;;;;;;23.27;12.77;;;;;;;4.81;78.30;101017.35;1726108;82;21102;-76
2022/04/27 03:39:49;;;;;;;23.97;13.13;;;;;;;4.78;78.35;101021.70;1732017;82;20996;-76
2022/04/27 03:42:18;;;;;;;27.20;14.03;;;;;;;4.74;78.36;101024.75;1724847;82;21378;-77
2022/04/27 03:44:47;;;;;;;22.57;13.07;;;;;;;4.69;78.43;101024.75;1731576;82;21504;-76
2022/04/27 03:47:14;;;;;;;21.03;11.77;;;;;;;4.66;78.51;101033.00;1725882;82;21067;-76
2022/04/27 03:49:41;;;;;;;19.10;10.47;;;;;;;4.63;78.64;101027.37;1727889;82;21048;-76
2022/04/27 03:52:08;;;;;;;13.43;8.67;;;;;;;4.61;78.75;101025.65;1728763;82;21035;-76
2022/04/27 03:54:36;;;;;;;12.60;8.80;;;;;;;4.60;78.81;101032.58;1725443;82;21272;-76
2022/04/27 03:57:04;;;;;;;13.27;8.17;;;;;;;4.58;78.94;101033.01;1729290;82;21260;-76
2022/04/27 03:59:31;;;;;;;11.57;8.07;;;;;;;4.57;79.02;101030.41;1727755;82;21056;-75
2022/04/27 04:01:58;;;;;;;12.77;8.07;;;;;;;4.57;79.29;101033.00;1697054;83;21036;-76
2022/04/27 04:04:25;;;;;;;14.37;8.60;;;;;;;4.60;79.31;101039.07;1726265;82;21098;-76
2022/04/27 04:06:53;;;;;;;12.07;8.77;;;;;;;4.62;79.53;101045.55;1727203;82;21121;-76
2022/04/27 04:09:20;;;;;;;11.63;8.50;;;;;;;4.65;79.68;101048.13;1724616;82;20953;-77
2022/04/27 04:11:47;;;;;;;10.90;7.93;;;;;;;4.67;79.75;101051.59;1731726;82;21036;-76
2022/04/27 04:14:17;;;;;;;11.50;8.58;;;;;;;4.68;79.75;101055.50;1726028;82;21596;-76
2022/04/27 04:16:55;;;;;;;11.40;8.20;;;;;;;4.70;79.81;101060.23;1721427;82;21257;-77
2022/04/27 04:19:30;;;;;;;13.17;9.07;;;;;;;4.70;79.78;101060.23;1727346;82;21329;-75
2022/04/27 04:22:02;;;;;;;17.53;12.13;;;;;;;4.74;79.98;101059.81;1676225;82;21039;-75
2022/04/27 04:24:30;;;;;;;12.33;8.87;;;;;;;4.79;80.18;101059.34;1729319;82;21454;-75
2022/04/27 04:29:43;;;;;;;10.20;7.97;;;;;;;4.86;80.22;101066.26;1728172;82;20996;-75
2022/04/27 04:32:10;;;;;;;11.77;7.87;;;;;;;4.91;80.28;101072.75;1712035;83;21102;-75
2022/04/27 04:34:54;;;;;;;11.47;8.53;;;;;;;4.92;80.31;101075.33;1684732;82;21095;-76
2022/04/27 04:37:21;;;;;;;12.20;8.30;;;;;;;4.98;80.51;101079.64;1727309;82;21008;-76
2022/04/27 04:39:49;;;;;;;11.07;7.03;;;;;;;5.01;80.56;101077.02;1696610;82;21026;-79
2022/04/27 04:42:16;;;;;;;13.03;7.80;;;;;;;5.03;80.56;101071.39;1712301;82;21107;-76
2022/04/27 04:44:44;;;;;;;12.00;7.57;;;;;;;5.07;80.59;101071.83;1706573;82;21085;-74
2022/04/27 04:47:22;;;;;;;11.73;7.93;;;;;;;5.13;80.75;101077.00;1676234;82;21079;-75
2022/04/27 04:49:53;;;;;;;10.37;8.03;;;;;;;5.22;80.89;101079.99;1714232;82;21322;-75
2022/04/27 04:52:34;;;;;;;12.33;8.70;;;;;;;5.30;81.00;101078.66;1728150;82;21050;-75
2022/04/27 04:55:20;;;;;;;13.90;9.10;;;;;;;5.40;81.16;101081.63;1724727;82;21054;-75
2022/04/27 04:57:55;;;;;;;13.03;9.20;;;;;;;5.49;81.17;101088.11;1734295;82;21217;-75
2022/04/27 05:00:39;;;;;;;16.10;10.43;;;;;;;5.57;81.20;101094.54;1695911;82;21486;-75
2022/04/27 05:03:08;;;;;;;12.77;9.10;;;;;;;5.66;81.16;101106.66;1730642;82;21047;-75
2022/04/27 05:05:46;;;;;;;15.30;9.83;;;;;;;5.72;81.29;101098.81;1691736;82;21047;-75
2022/04/27 05:08:18;;;;;;;13.33;9.17;;;;;;;5.77;81.30;101100.95;1690874;82;21400;-75
2022/04/27 05:10:49;;;;;;;13.63;10.10;;;;;;;5.84;81.26;101101.33;1686085;82;21300;-75
2022/04/27 05:13:18;;;;;;;14.53;9.80;;;;;;;5.91;81.35;101104.33;1667997;83;21078;-75
2022/04/27 05:15:48;;;;;;;12.50;9.67;;;;;;;5.99;81.41;101107.78;1675508;82;21103;-75
2022/04/27 05:18:34;;;;;;;13.27;9.70;;;;;;;6.09;81.55;101116.81;1703820;82;21548;-75
2022/04/27 05:21:12;;;;;;;15.83;10.50;;;;;;;6.19;81.81;101122.39;1698556;83;21137;-75
2022/04/27 05:23:57;;;;;;;14.10;10.43;;;;;;;6.31;82.03;101126.19;1714563;82;21502;-77
2022/04/27 05:26:35;;;;;;;14.53;10.53;;;;;;;6.43;82.10;101114.38;1727139;82;21021;-75
2022/04/27 05:32:10;;;;;;;16.17;11.20;;;;;;;6.69;82.13;101123.70;1719118;82;21068;-76
2022/04/27 05:34:40;;;;;;;13.25;10.45;;;;;;;6.84;82.23;101125.28;1719493;82;21038;-75
2022/04/27 05:37:18;;;;;;;14.07;10.70;;;;;;;6.97;82.28;101125.58;1723561;82;21597;-76
2022/04/27 05:40:06;;;;;;;13.97;11.07;;;;;;;7.13;82.31;101126.29;1732597;82;21506;-75
2022/04/27 05:42:36;;;;;;;16.77;10.57;;;;;;;7.31;82.37;101126.05;1716118;82;21457;-75
2022/04/27 05:45:09;;;;;;;16.47;10.30;;;;;;;7.47;82.22;101129.34;1718525;82;21656;-75
2022/04/27 05:47:46;;;;;;;14.70;9.90;;;;;;;7.69;82.19;101132.55;1729219;82;21061;-76
2022/04/27 05:50:18;;;;;;;13.77;10.37;;;;;;;7.91;81.92;101131.80;1721666;82;21126;-76
2022/04/27 05:53:04;;;;;;;13.30;10.30;;;;;;;8.11;81.71;101126.28;1731195;82;21029;-75
2022/04/27 05:55:51;;;;;;;16.57;11.80;;;;;;;8.33;81.36;101133.79;1719174;82;21569;-75
2022/04/27 05:58:24;;;;;;;14.73;10.47;;;;;;;8.53;80.97;101137.41;1704488;82;21131;-75
2022/04/27 06:01:09;;;;;;;16.27;10.80;;;;;;;8.69;80.75;101142.34;1717264;82;21169;-75
2022/04/27 06:03:39;;;;;;;17.10;10.87;;;;;;;8.87;80.43;101146.41;1731405;82;21149;-75
2022/04/27 06:06:08;;;;;;;14.97;10.17;;;;;;;9.02;79.85;101150.93;1730454;82;21070;-75
2022/04/27 06:08:35;;;;;;;13.17;9.70;;;;;;;9.15;79.70;101153.28;1728870;82;21653;-75
2022/04/27 06:11:04;;;;;;;11.07;9.07;;;;;;;9.28;79.49;101148.66;1729365;82;21028;-75
2022/04/27 06:13:33;;;;;;;12.18;9.13;;;;;;;9.41;79.09;101150.59;1717300;82;21044;-75
2022/04/27 06:16:08;;;;;;;11.73;8.50;;;;;;;9.54;78.73;101164.30;1706766;82;22159;-75
2022/04/27 06:18:40;;;;;;;12.30;9.03;;;;;;;9.68;78.52;101165.33;1704983;82;21039;-74
2022/04/27 06:21:09;;;;;;;13.63;9.10;;;;;;;9.79;78.24;101171.19;1727871;82;21036;-75
2022/04/27 06:23:41;;;;;;;11.12;9.05;;;;;;;9.90;77.91;101177.06;1689584;82;21595;-75
2022/04/27 06:26:08;;;;;;;12.40;8.63;;;;;;;10.00;77.70;101178.59;1701527;82;21671;-75
2022/04/27 06:28:38;;;;;;;11.67;8.80;;;;;;;10.14;77.31;101176.97;1725516;82;21127;-75
2022/04/27 06:31:05;;;;;;;14.43;9.07;;;;;;;10.24;77.19;101174.98;1714987;82;21062;-75
2022/04/27 06:33:33;;;;;;;11.57;8.83;;;;;;;10.35;76.97;101174.31;1686033;82;21119;-75
2022/04/27 06:36:00;;;;;;;11.73;8.60;;;;;;;10.46;76.76;101177.99;1691635;83;21075;-75
2022/04/27 06:38:27;;;;;;;12.03;9.20;;;;;;;10.56;76.65;101178.61;1699409;83;21032;-75
2022/04/27 06:40:56;;;;;;;12.80;8.90;;;;;;;10.64;75.98;101181.48;1699367;83;21214;-75
2022/04/27 06:43:26;;;;;;;12.45;8.98;;;;;;;10.73;75.90;101176.91;1699778;83;21510;-73
2022/04/27 06:46:12;;;;;;;12.23;8.93;;;;;;;10.83;75.53;101183.17;1696056;83;21045;-76
2022/04/27 06:48:58;;;;;;;13.10;9.07;;;;;;;10.95;75.33;101185.95;1675399;83;21046;-73
2022/04/27 06:51:43;;;;;;;11.97;8.80;;;;;;;11.04;75.05;101188.78;1699435;83;21586;-72
2022/04/27 06:54:28;;;;;;;12.68;8.85;;;;;;;11.15;74.78;101195.45;1696978;83;21958;-73
2022/04/27 06:57:14;;;;;;;13.57;10.07;;;;;;;11.27;74.61;101189.01;1708927;82;21585;-75
2022/04/27 06:59:42;;;;;;;15.55;9.98;;;;;;;11.39;74.27;101189.15;1726132;82;21009;-73
2022/04/27 07:02:14;;;;;;;14.20;9.43;;;;;;;11.50;74.27;101196.27;1699565;83;21067;-73
2022/04/27 07:04:43;;;;;;;13.65;9.78;;;;;;;11.59;73.96;101201.25;1724961;82;21017;-73
2022/04/27 07:07:10;;;;;;;14.50;9.80;;;;;;;11.68;73.67;101197.95;1723894;82;22034;-72
2022/04/27 07:09:36;;;;;;;13.58;9.93;;;;;;;11.77;73.43;101199.84;1731306;82;21040;-73
2022/04/27 07:12:05;;;;;;;14.85;9.53;;;;;;;11.89;73.08;101201.30;1723491;82;21553;-73
2022/04/27 07:14:32;;;;;;;13.28;9.53;;;;;;;11.98;72.80;101206.73;1725352;82;21016;-73
2022/04/27 07:16:58;;;;;;;11.53;10.10;;;;;;;12.04;72.59;101211.34;1725654;82;21083;-74
2022/04/27 07:19:25;;;;;;;13.30;9.70;;;;;;;12.10;72.46;101212.92;1728369;82;21716;-74
2022/04/27 07:21:52;;;;;;;17.48;10.72;;;;;;;12.19;72.20;101213.97;1727941;82;21094;-74
2022/04/27 07:24:20;;;;;;;12.60;10.35;;;;;;;12.30;71.61;101214.93;1729311;82;21036;-74
2022/04/27 07:26:47;;;;;;;13.80;9.25;;;;;;;12.39;71.15;101209.87;1715917;82;21048;-73
2022/04/27 07:29:14;;;;;;;13.78;8.70;;;;;;;12.48;70.70;101215.67;1712410;82;21049;-73
2022/04/27 07:31:41;;;;;;;14.55;9.15;;;;;;;12.59;70.36;101220.59;1712998;83;21554;-76
2022/04/27 07:34:08;;;;;;;12.13;8.90;;;;;;;12.67;69.81;101218.58;1716088;82;21025;-72
2022/04/27 07:36:35;;;;;;;12.05;8.80;;;;;;;12.78;69.53;101223.95;1716186;82;21044;-73
2022/04/27 07:39:03;;;;;;;14.60;10.25;;;;;;;12.88;69.33;101219.62;1712963;82;20996;-73
2022/04/27 07:41:30;;;;;;;12.15;10.20;;;;;;;12.98;68.91;101224.59;1730198;82;21028;-75
2022/04/27 07:43:57;;;;;;;13.10;8.68;;;;;;;13.09;68.86;101229.03;1727925;82;21131;-76
2022/04/27 07:46:24;;;;;;;12.15;9.00;;;;;;;13.20;68.37;101227.35;1728608;82;21052;-72
2022/04/27 07:48:54;;;;;;;10.75;8.18;;;;;;;13.29;68.12;101229.23;1734685;82;21115;-75
2022/04/27 07:51:22;;;;;;;9.78;8.08;;;;;;;13.36;67.54;101229.89;1717441;82;21031;-75
2022/04/27 07:53:49;;;;;;;10.55;8.80;;;;;;;13.40;67.20;101231.48;1729749;82;21063;-73
2022/04/27 07:56:16;;;;;;;10.43;8.13;;;;;;;13.47;67.14;101231.68;1717027;82;21115;-75
2022/04/27 07:58:43;;;;;;;10.72;8.08;;;;;;;13.58;67.02;101231.30;1720820;82;21115;-73
2022/04/27 08:01:10;;;;;;;12.70;8.58;;;;;;;13.68;67.07;101235.76;1717269;82;21593;-74
2022/04/27 08:03:37;;;;;;;10.72;8.95;;;;;;;13.78;66.89;101231.88;1719892;82;21028;-73
2022/04/27 08:06:04;;;;;;;10.95;9.05;;;;;;;13.84;66.50;101232.50;1689091;82;21014;-72
2022/04/27 08:08:32;;;;;;;13.05;9.05;;;;;;;13.91;66.38;101237.09;1691434;82;21361;-73
2022/04/27 08:10:59;;;;;;;11.33;8.43;;;;;;;13.95;66.28;101234.73;1677617;82;20944;-73
2022/04/27 08:13:26;;;;;;;10.93;8.85;;;;;;;14.00;65.87;101239.84;1691728;82;21044;-72
2022/04/27 08:15:52;;;;;;;11.60;8.30;;;;;;;13.99;65.65;101236.32;1680943;83;21047;-73
2022/04/27 08:18:20;;;;;;;10.58;8.43;;;;;;;14.00;65.43;101239.38;1711975;82;21055;-73
2022/04/27 08:23:34;;;;;;;12.40;9.15;;;;;;;14.09;65.25;101247.86;1694389;83;21521;-74
2022/04/27 08:26:04;;;;;;;11.00;9.15;;;;;;;14.15;65.55;101247.61;1702295;83;21051;-74
2022/04/27 08:28:32;;;;;;;;;;;;;;;14.23;65.30;101252.14;1700230;83;20987;-74
2022/04/27 08:31:00;;;;;;;12.30;8.98;;;;;;;14.32;64.68;101252.23;1701707;83;20459;-73
2022/04/27 08:33:27;;;;;;;13.15;8.58;;;;;;;14.39;65.47;101249.30;1699876;84;21867;-74
2022/04/27 08:35:55;;;;;;;10.32;7.87;;;;;;;14.54;65.05;101247.86;1700126;83;21004;-74
2022/04/27 08:38:22;;;;;;;11.30;8.50;;;;;;;14.66;64.70;101250.45;1696181;83;20999;-75
2022/04/27 08:40:49;;;;;;;10.90;8.03;;;;;;;14.77;65.23;101249.59;1693083;83;20997;-74
2022/04/27 08:43:16;;;;;;;11.25;8.68;;;;;;;14.96;64.77;101245.70;1697418;83;21071;-74
2022/04/27 08:45:45;;;;;;;9.40;7.83;;;;;;;15.11;64.43;101243.75;1701414;83;21561;-74
2022/04/27 08:48:17;;;;;;;13.53;8.15;;;;;;;15.23;64.01;101246.79;1701510;84;21040;-75
2022/04/27 08:50:45;;;;;;;9.70;7.03;;;;;;;15.31;63.74;101248.17;1698483;83;21066;-75
2022/04/27 08:53:13;;;;;;;10.23;7.90;;;;;;;15.42;63.42;101250.35;1698207;83;21485;-75
2022/04/27 08:55:41;;;;;;;8.73;6.60;;;;;;;15.52;62.86;101252.11;1697062;83;21092;-77
2022/04/27 08:58:12;;;;;;;7.40;5.92;;;;;;;15.62;62.30;101249.47;1700253;83;21419;-77
2022/04/27 09:00:40;;;;;;;10.68;5.78;;;;;;;15.73;61.82;101252.98;1704363;83;21043;-78
2022/04/27 09:03:25;;;;;;;7.78;4.90;;;;;;;15.85;61.18;101251.09;1692650;83;21019;-76
2022/04/27 09:06:00;;;;;;;6.00;4.55;;;;;;;15.97;60.88;101254.99;1698780;83;21015;-76
2022/04/27 09:08:49;;;;;;;9.00;5.12;;;;;;;16.09;60.51;101257.05;1695677;83;21389;-76
2022/04/27 09:11:26;;;;;;;8.08;5.30;;;;;;;16.19;60.27;101252.22;1701994;84;21176;-76
2022/04/27 09:13:57;;;;;;;6.50;4.05;;;;;;;16.32;60.14;101252.00;1667775;85;21063;-76
2022/04/27 09:20:46;;;;;;;8.90;4.83;;;;;;;16.47;59.25;101263.19;1692283;84;21100;-76
2022/04/27 09:22:03;;;;;;;5.08;4.50;;;;;;;16.64;58.72;101253.11;1715702;82;21088;-77
2022/04/27 09:24:51;;;;;;;7.97;4.90;;;;;;;16.82;58.25;101252.73;1732664;82;21053;-76
2022/04/27 09:27:22;;;;;;;5.40;4.90;;;;;;;16.96;57.82;101249.39;1725029;82;20964;-78
2022/04/27 09:30:10;;;;;;;7.10;5.10;;;;;;;17.07;57.22;101247.50;1721989;82;21110;-77
2022/04/27 09:32:37;;;;;;;8.08;5.50;;;;;;;17.12;56.74;101248.13;1720309;82;21481;-78
2022/04/27 09:35:08;;;;;;;7.60;5.22;;;;;;;17.19;56.54;101243.39;1723381;82;21048;-80
2022/04/27 09:37:42;;;;;;;5.03;4.28;;;;;;;17.29;56.08;101244.17;1725401;82;21139;-78
2022/04/27 09:40:13;;;;;;;5.45;3.98;;;;;;;17.36;55.28;101236.27;1719163;82;21039;-80
2022/04/27 09:42:47;;;;;;;5.97;4.53;;;;;;;17.52;55.11;101238.13;1724146;82;21051;-79
2022/04/27 09:45:26;;;;;;;7.17;3.58;;;;;;;17.73;54.62;101246.72;1726423;82;21453;-80
2022/04/27 09:48:04;;;;;;;4.25;3.72;;;;;;;17.84;53.56;101236.42;1716623;82;21062;-79
2022/04/27 09:50:55;;;;;;;6.00;3.85;;;;;;;18.02;53.27;101232.78;1713790;81;21153;-79
2022/04/27 09:53:22;;;;;;;6.58;4.78;;;;;;;18.17;53.19;101234.20;1709302;82;20968;-79
2022/04/27 09:55:53;;;;;;;6.87;4.80;;;;;;;18.34;52.82;101231.45;1697057;82;21016;-79
2022/04/27 09:58:20;;;;;;;4.67;3.87;;;;;;;18.49;52.29;101230.59;1727533;82;21055;-79
2022/04/27 10:00:48;;;;;;;5.12;3.77;;;;;;;18.75;51.82;101223.44;1720831;81;21117;-80
2022/04/27 10:03:18;;;;;;;4.30;3.62;;;;;;;18.99;51.64;101221.15;1731552;82;21382;-79
2022/04/27 10:05:47;;;;;;;5.05;3.87;;;;;;;19.07;50.86;101216.23;1723013;82;21529;-80
2022/04/27 10:08:14;;;;;;;4.37;3.98;;;;;;;19.17;50.28;101216.05;1698416;82;21031;-79
2022/04/27 10:10:45;;;;;;;5.50;3.80;;;;;;;19.22;50.01;101222.42;1716927;82;21008;-78
2022/04/27 10:13:14;;;;;;;4.47;3.50;;;;;;;19.19;49.33;101222.12;1731823;82;22281;-77
2022/04/27 10:15:46;;;;;;;4.42;3.25;;;;;;;19.10;49.17;101222.21;1728694;82;21124;-78
2022/04/27 10:18:18;;;;;;;6.12;3.90;;;;;;;18.93;48.72;101218.38;1720554;82;21122;-76
2022/04/27 10:20:49;;;;;;;7.17;3.77;;;;;;;18.80;48.83;101230.66;1698767;82;21710;-79
2022/04/27 10:23:24;;;;;;;5.90;3.58;;;;;;;18.61;48.68;101229.51;1730404;82;21112;-77
2022/04/27 10:26:16;;;;;;;5.22;3.67;;;;;;;18.41;48.40;101231.98;1730888;82;21274;-77
2022/04/27 10:28:53;;;;;;;4.55;3.50;;;;;;;18.19;48.61;101233.65;1731639;82;21231;-76
2022/04/27 10:31:56;;;;;;;3.92;2.80;;;;;;;17.98;48.58;101239.17;1730174;82;21008;-76
2022/04/27 10:34:25;;;;;;;5.00;3.22;;;;;;;17.75;48.43;101238.22;1713262;82;20924;-76
2022/04/27 10:36:57;;;;;;;;;;;;;;;17.52;48.47;101237.66;1726503;82;21484;-76
2022/04/27 10:39:28;;;;;;;6.17;3.60;;;;;;;17.37;48.31;101237.13;1727878;82;20668;-77
2022/04/27 10:42:23;;;;;;;5.30;3.92;;;;;;;17.24;48.85;101246.67;1728504;82;21175;-77
2022/04/27 10:44:58;;;;;;;8.15;4.00;;;;;;;17.14;49.18;101239.17;1728243;82;21040;-76
2022/04/27 10:47:31;;;;;;;4.40;4.00;;;;;;;17.01;48.94;101246.02;1712423;82;21004;-82
2022/04/27 10:50:19;;;;;;;4.22;3.47;;;;;;;16.90;49.19;101249.67;1628959;86;21118;-81
2022/04/27 10:52:53;;;;;;;5.28;3.58;;;;;;;16.84;49.09;101251.30;1640624;86;21067;-78
2022/04/27 10:55:48;;;;;;;4.95;3.20;;;;;;;16.78;48.85;101249.82;1671808;85;21086;-77
2022/04/27 10:58:34;;;;;;;4.22;3.33;;;;;;;16.73;48.89;101253.98;1658619;85;21023;-76
2022/04/27 11:01:15;;;;;;;6.87;3.47;;;;;;;16.76;48.97;101250.80;1661633;84;21087;-76
2022/04/27 11:03:42;;;;;;;3.95;3.52;;;;;;;16.77;48.92;101253.89;1720918;82;21066;-76
2022/04/27 11:06:12;;;;;;;3.75;3.20;;;;;;;16.78;48.99;101257.77;1729760;82;21053;-77
2022/04/27 11:09:15;;;;;;;;;;;;;;;16.79;48.94;101257.29;1718854;82;21599;-76
2022/04/27 11:11:56;;;;;;;4.87;3.70;;;;;;;16.83;48.62;101253.10;1721862;82;20179;-76
2022/04/27 11:14:34;;;;;;;4.65;3.62;;;;;;;16.87;48.95;101255.13;1726697;82;21063;-76
2022/04/27 11:17:00;;;;;;;6.17;3.70;;;;;;;16.92;49.03;101255.75;1726251;82;21780;-76
2022/04/27 11:19:40;;;;;;;6.28;4.03;;;;;;;17.07;49.30;101260.73;1730432;82;21033;-75
2022/04/27 11:22:16;;;;;;;5.85;4.55;;;;;;;17.36;49.37;101253.97;1721489;82;21123;-76
2022/04/27 11:24:46;;;;;;;4.78;4.17;;;;;;;17.62;48.90;101255.24;1719365;82;20994;-76
2022/04/27 11:27:16;;;;;;;6.30;4.70;;;;;;;17.66;48.67;101259.94;1716967;82;21079;-77
2022/04/27 11:29:45;;;;;;;6.62;4.37;;;;;;;17.64;48.47;101265.78;1694544;82;21022;-76
2022/04/27 11:32:15;;;;;;;4.90;4.10;;;;;;;17.56;48.12;101263.05;1723152;82;21080;-76
2022/04/27 11:34:45;;;;;;;7.15;3.85;;;;;;;17.47;47.85;101258.24;1729819;82;21082;-77
2022/04/27 11:37:19;;;;;;;5.87;3.90;;;;;;;17.34;47.60;101260.66;1724553;82;21011;-76
2022/04/27 11:39:48;;;;;;;6.22;4.20;;;;;;;17.19;47.56;101255.31;1734880;82;21036;-76
2022/04/27 11:42:17;;;;;;;5.25;3.60;;;;;;;17.08;47.50;101261.15;1728477;82;21065;-78
2022/04/27 11:44:52;;;;;;;6.12;3.70;;;;;;;16.99;47.56;101256.30;1726717;82;21017;-78
2022/04/27 11:47:33;;;;;;;6.17;3.90;;;;;;;16.87;47.22;101268.36;1727237;82;21530;-76
2022/04/27 11:50:03;;;;;;;5.20;3.83;;;;;;;16.76;47.07;101265.35;1705060;82;21075;-77
2022/04/27 11:52:31;;;;;;;7.03;3.87;;;;;;;16.67;47.45;101266.20;1684355;82;21022;-80
2022/04/27 11:55:04;;;;;;;4.92;3.62;;;;;;;16.61;47.75;101271.79;1686794;84;21039;-76
2022/04/27 11:57:31;;;;;;;7.58;4.00;;;;;;;16.54;47.61;101273.00;1724988;82;21452;-76
2022/04/27 11:59:58;;;;;;;5.67;4.30;;;;;;;16.51;47.78;101275.80;1687398;82;21034;-76